Time;durP1;ratioP1;P1;durP2;ratioP2;P2;SDS_P1;SDS_P2;PMS_P1;PMS_P2;Temp;Humidity;BMP_temperature;BMP_pressure;BME280_temperature;BME280_humidity;BME280_pressure;Samples;Min_cycle;Max_cycle;Signal;HPM_P1;HPM_P2
2024/03/17 00:01:28;;;;;;;11.00;1.93;;;7.00;99.90;;;;;;5084394;28;20200;-75
2024/03/17 00:04:14;;;;;;;8.73;2.07;;;6.90;99.90;;;;;;5099351;28;20209;-75
2024/03/17 00:07:01;;;;;;;6.23;2.00;;;6.90;99.90;;;;;;5085547;28;20562;-75
2024/03/17 00:09:47;;;;;;;7.50;2.00;;;6.90;99.90;;;;;;5085304;28;20192;-76
2024/03/17 00:12:34;;;;;;;5.77;1.93;;;6.90;99.90;;;;;;5083012;28;20568;-76
2024/03/17 00:15:20;;;;;;;9.30;2.13;;;6.90;99.90;;;;;;5098827;28;20193;-76
2024/03/17 00:18:07;;;;;;;13.57;2.20;;;6.90;99.90;;;;;;5098745;28;20216;-76
2024/03/17 00:20:54;;;;;;;8.57;2.10;;;6.90;99.90;;;;;;5098702;28;20188;-76
2024/03/17 00:23:40;;;;;;;5.87;2.00;;;6.90;99.90;;;;;;5097881;28;20185;-75
2024/03/17 00:26:27;;;;;;;7.70;1.77;;;6.80;99.90;;;;;;5099054;28;20207;-76
2024/03/17 00:29:14;;;;;;;6.20;1.80;;;6.80;99.90;;;;;;5084938;28;20192;-76
2024/03/17 00:32:01;;;;;;;9.63;1.90;;;6.80;99.90;;;;;;5083880;28;20676;-76
2024/03/17 00:34:47;;;;;;;11.17;2.17;;;6.80;99.90;;;;;;5098787;28;20218;-76
2024/03/17 00:37:33;;;;;;;7.73;1.77;;;6.70;99.90;;;;;;5098771;28;20648;-76
2024/03/17 00:40:20;;;;;;;8.00;1.80;;;6.70;99.90;;;;;;5098692;28;20201;-77
2024/03/17 00:43:07;;;;;;;6.47;2.00;;;6.60;99.90;;;;;;5084084;28;20189;-76
2024/03/17 00:45:54;;;;;;;13.63;1.90;;;6.70;99.90;;;;;;5083309;28;20603;-76
2024/03/17 00:48:40;;;;;;;9.83;1.90;;;6.70;99.90;;;;;;5097526;28;20295;-76
2024/03/17 00:51:27;;;;;;;10.20;1.50;;;6.60;99.90;;;;;;5098391;28;20220;-76
2024/03/17 00:54:13;;;;;;;9.77;1.70;;;6.60;99.90;;;;;;5097594;28;20192;-76
2024/03/17 00:56:59;;;;;;;8.30;1.77;;;6.60;99.90;;;;;;5097701;28;20232;-76
2024/03/17 00:59:45;;;;;;;6.30;1.60;;;6.60;99.90;;;;;;5097925;28;20205;-76
2024/03/17 01:02:32;;;;;;;5.87;1.43;;;6.70;99.90;;;;;;5098265;28;20194;-76
2024/03/17 01:05:18;;;;;;;7.70;1.57;;;6.60;99.90;;;;;;5098845;28;20713;-76
2024/03/17 01:08:05;;;;;;;12.03;2.10;;;6.60;99.90;;;;;;5083379;28;20199;-76
2024/03/17 01:10:52;;;;;;;6.83;1.80;;;6.50;99.90;;;;;;5082911;28;20194;-76
2024/03/17 01:13:41;;;;;;;6.23;2.00;;;6.60;99.90;;;;;;5083851;28;20584;-76
2024/03/17 01:16:27;;;;;;;10.53;1.93;;;6.50;99.90;;;;;;5097990;28;20229;-77
2024/03/17 01:19:14;;;;;;;8.27;1.90;;;6.50;99.90;;;;;;5097555;28;20220;-76
2024/03/17 01:22:01;;;;;;;9.90;1.43;;;6.40;99.90;;;;;;5083713;28;20226;-76
2024/03/17 01:24:48;;;;;;;8.77;1.83;;;6.40;99.90;;;;;;5097829;28;20192;-76
2024/03/17 01:27:34;;;;;;;9.53;1.60;;;6.30;99.90;;;;;;5097241;28;20191;-76
2024/03/17 01:30:20;;;;;;;13.47;2.20;;;6.10;99.90;;;;;;5097293;28;20655;-76
2024/03/17 01:33:07;;;;;;;9.27;2.00;;;6.10;99.90;;;;;;5083599;28;20187;-75
2024/03/17 01:35:53;;;;;;;10.67;1.80;;;6.00;99.90;;;;;;5082115;28;20253;-75
2024/03/17 01:38:40;;;;;;;6.33;1.43;;;6.00;99.90;;;;;;5097591;28;20197;-75
2024/03/17 01:41:26;;;;;;;11.17;2.30;;;6.00;99.90;;;;;;5085188;28;20242;-76
2024/03/17 01:44:23;;;;;;;15.77;2.90;;;5.90;99.90;;;;;;5099017;28;20186;-74
2024/03/17 01:47:09;;;;;;;8.10;1.80;;;5.90;99.90;;;;;;5083110;28;20199;-76
2024/03/17 01:49:56;;;;;;;10.80;1.77;;;5.80;99.90;;;;;;5084691;28;20691;-76
2024/03/17 01:52:42;;;;;;;12.77;3.00;;;5.80;99.90;;;;;;5096333;28;20195;-76
2024/03/17 01:55:28;;;;;;;11.00;1.83;;;5.80;99.90;;;;;;5097489;28;20197;-76
2024/03/17 01:58:15;;;;;;;10.27;1.80;;;5.70;99.90;;;;;;5096564;28;20219;-75
2024/03/17 02:01:04;;;;;;;9.40;2.20;;;5.70;99.90;;;;;;5096678;28;20541;-76
2024/03/17 02:03:50;;;;;;;12.83;2.13;;;5.70;99.90;;;;;;5082155;28;20219;-76
2024/03/17 02:06:37;;;;;;;7.53;1.80;;;5.70;99.90;;;;;;5096878;28;20269;-75
2024/03/17 02:09:23;;;;;;;10.37;1.87;;;5.70;99.90;;;;;;5096172;28;20199;-75
2024/03/17 02:12:11;;;;;;;10.57;2.27;;;5.60;99.90;;;;;;5097239;28;20201;-76
2024/03/17 02:15:05;;;;;;;6.17;1.70;;;5.60;99.90;;;;;;5096278;28;20592;-76
2024/03/17 02:17:51;;;;;;;10.27;2.07;;;5.60;99.90;;;;;;5095857;28;20216;-76
2024/03/17 02:20:57;;;;;;;11.40;2.03;;;5.60;99.90;;;;;;5096761;28;20222;-76
2024/03/17 02:23:44;;;;;;;11.27;2.10;;;5.50;99.90;;;;;;5096094;28;20193;-76
2024/03/17 02:26:30;;;;;;;10.93;1.93;;;5.50;99.90;;;;;;5083670;28;20654;-76
2024/03/17 02:29:16;;;;;;;7.80;1.70;;;5.40;99.90;;;;;;5095994;28;20559;-76
2024/03/17 02:32:09;;;;;;;9.33;2.07;;;5.40;99.90;;;;;;5097531;28;20194;-76
2024/03/17 02:34:56;;;;;;;11.03;1.93;;;5.30;99.90;;;;;;5083955;28;20210;-75
2024/03/17 02:37:43;;;;;;;12.17;2.07;;;5.30;99.90;;;;;;5086448;28;20470;-75
2024/03/17 02:40:29;;;;;;;10.30;2.30;;;5.30;99.90;;;;;;5100472;28;20193;-76
2024/03/17 02:43:15;;;;;;;10.97;1.90;;;5.30;99.90;;;;;;5101080;28;20188;-75
2024/03/17 02:46:05;;;;;;;10.03;2.03;;;5.30;99.90;;;;;;5101476;28;20285;-76
2024/03/17 02:48:53;;;;;;;12.27;2.70;;;5.30;99.90;;;;;;5100145;28;20220;-75
2024/03/17 02:51:39;;;;;;;7.73;1.90;;;5.30;99.90;;;;;;5099858;28;20196;-75
2024/03/17 02:54:25;;;;;;;9.83;2.10;;;5.40;99.90;;;;;;5099875;28;20196;-75
2024/03/17 02:57:12;;;;;;;12.00;2.73;;;5.30;99.90;;;;;;5086038;28;20221;-75
2024/03/17 02:59:59;;;;;;;11.27;2.40;;;5.30;99.90;;;;;;5072354;28;20191;-75
2024/03/17 03:02:45;;;;;;;12.77;2.00;;;5.20;99.90;;;;;;5085552;28;20193;-76
2024/03/17 03:05:32;;;;;;;9.17;2.30;;;5.20;99.90;;;;;;5099246;28;20586;-76
2024/03/17 03:08:18;;;;;;;9.47;2.10;;;5.10;99.90;;;;;;5100490;28;20235;-76
2024/03/17 03:11:07;;;;;;;15.87;2.70;;;5.00;99.90;;;;;;5085522;28;20189;-75
2024/03/17 03:13:53;;;;;;;9.97;2.13;;;5.00;99.90;;;;;;5072899;28;20196;-76
2024/03/17 03:16:40;;;;;;;9.37;2.30;;;4.90;99.90;;;;;;5100290;28;20222;-76
2024/03/17 03:19:27;;;;;;;12.90;2.20;;;5.00;99.90;;;;;;5099734;28;20270;-76
2024/03/17 03:22:13;;;;;;;11.40;2.63;;;4.90;99.90;;;;;;5099811;28;20632;-76
2024/03/17 03:25:00;;;;;;;10.17;2.20;;;5.00;99.90;;;;;;5099020;28;20203;-76
2024/03/17 03:27:46;;;;;;;10.90;2.20;;;5.00;99.90;;;;;;5086185;28;20608;-76
2024/03/17 03:30:36;;;;;;;13.10;2.60;;;5.00;99.90;;;;;;5100730;28;20195;-76
2024/03/17 03:33:23;;;;;;;12.00;2.33;;;5.00;99.90;;;;;;5099593;28;20199;-76
2024/03/17 03:36:10;;;;;;;12.70;2.37;;;5.10;99.90;;;;;;5084755;28;20263;-76
2024/03/17 03:38:58;;;;;;;12.13;2.40;;;5.00;99.90;;;;;;5100535;28;20213;-76
2024/03/17 03:41:44;;;;;;;12.10;3.00;;;4.90;99.90;;;;;;5098963;28;20340;-76
2024/03/17 03:44:31;;;;;;;9.90;2.43;;;5.00;99.90;;;;;;5099838;28;20189;-76
2024/03/17 03:47:17;;;;;;;8.93;2.60;;;5.00;99.90;;;;;;5085690;28;20201;-76
2024/03/17 03:50:04;;;;;;;12.30;2.40;;;5.10;99.90;;;;;;5100966;28;20221;-76
2024/03/17 03:52:51;;;;;;;15.50;2.50;;;5.00;99.90;;;;;;5085028;28;20561;-76
2024/03/17 03:55:37;;;;;;;11.33;2.70;;;5.00;99.90;;;;;;5099566;28;20188;-76
2024/03/17 03:58:24;;;;;;;10.17;2.63;;;5.10;99.90;;;;;;5099544;28;20222;-76
2024/03/17 04:01:21;;;;;;;8.53;2.47;;;5.00;99.90;;;;;;5084392;28;20191;-76
2024/03/17 04:04:07;;;;;;;10.93;2.70;;;5.10;99.90;;;;;;5085518;28;20212;-76
2024/03/17 04:06:53;;;;;;;10.87;2.60;;;5.20;99.90;;;;;;5099452;28;20189;-76
2024/03/17 04:09:40;;;;;;;10.67;2.97;;;5.10;99.90;;;;;;5098088;28;20199;-76
2024/03/17 04:12:27;;;;;;;8.83;2.77;;;5.10;99.90;;;;;;5085172;28;20189;-76
2024/03/17 04:15:14;;;;;;;7.53;2.27;;;5.10;99.90;;;;;;5098363;28;20558;-76
2024/03/17 04:18:00;;;;;;;12.97;2.83;;;5.10;99.90;;;;;;5084422;28;20249;-76
2024/03/17 04:20:46;;;;;;;13.93;2.57;;;5.10;99.90;;;;;;5098705;28;20192;-76
2024/03/17 04:23:32;;;;;;;14.43;2.70;;;5.00;99.90;;;;;;5099123;28;20194;-76
2024/03/17 04:26:19;;;;;;;12.57;2.70;;;5.00;99.90;;;;;;5084491;28;20195;-76
2024/03/17 04:29:05;;;;;;;8.60;2.43;;;5.00;99.90;;;;;;5084017;28;20280;-76
2024/03/17 04:31:51;;;;;;;10.80;2.40;;;5.00;99.90;;;;;;5098038;28;20196;-76
2024/03/17 04:34:38;;;;;;;8.10;2.40;;;5.10;99.90;;;;;;5084860;28;20218;-76
2024/03/17 04:37:24;;;;;;;9.93;2.83;;;5.10;99.90;;;;;;5083938;28;20647;-76
2024/03/17 04:40:11;;;;;;;15.30;2.90;;;5.00;99.90;;;;;;5083802;28;20372;-76
2024/03/17 04:42:57;;;;;;;11.20;2.50;;;5.10;99.90;;;;;;5097655;28;20200;-76
2024/03/17 04:45:44;;;;;;;10.27;2.87;;;5.00;99.90;;;;;;5099325;28;20190;-76
2024/03/17 04:48:32;;;;;;;10.67;2.73;;;5.00;99.90;;;;;;5084585;28;20193;-76
2024/03/17 04:51:18;;;;;;;11.37;2.40;;;5.00;99.90;;;;;;5097527;28;20655;-76
2024/03/17 04:54:05;;;;;;;14.13;2.80;;;5.00;99.90;;;;;;5084077;28;20556;-76
2024/03/17 04:56:52;;;;;;;11.97;2.93;;;4.90;99.90;;;;;;5096824;28;20236;-76
2024/03/17 04:59:38;;;;;;;8.57;2.60;;;4.80;99.90;;;;;;5097293;28;20197;-76
2024/03/17 05:02:25;;;;;;;14.23;2.77;;;4.80;99.90;;;;;;5083076;28;20542;-76
2024/03/17 05:05:11;;;;;;;13.03;2.63;;;4.90;99.90;;;;;;5098086;28;20211;-76
2024/03/17 05:07:58;;;;;;;13.50;2.53;;;4.90;99.90;;;;;;5084267;28;20217;-76
2024/03/17 05:10:44;;;;;;;10.77;2.73;;;4.90;99.90;;;;;;5082428;28;20655;-76
2024/03/17 05:13:31;;;;;;;10.27;2.53;;;4.80;99.90;;;;;;5097689;28;20672;-76
2024/03/17 05:16:18;;;;;;;9.53;2.87;;;4.80;99.90;;;;;;5083935;28;20188;-76
2024/03/17 05:19:04;;;;;;;12.37;3.07;;;4.80;99.90;;;;;;5096818;28;20292;-76
2024/03/17 05:21:50;;;;;;;6.93;2.70;;;4.70;99.90;;;;;;5083017;28;20268;-76
2024/03/17 05:24:37;;;;;;;11.97;2.60;;;4.70;99.90;;;;;;5097949;28;20192;-76
2024/03/17 05:27:23;;;;;;;12.70;2.60;;;4.60;99.90;;;;;;5097936;28;20678;-76
2024/03/17 05:30:10;;;;;;;9.23;2.90;;;4.50;99.90;;;;;;5097125;28;20191;-76
2024/03/17 05:32:56;;;;;;;8.00;2.73;;;4.50;99.90;;;;;;5096805;28;20199;-76
2024/03/17 05:35:49;;;;;;;14.90;3.53;;;4.30;99.90;;;;;;5096794;28;20229;-76
2024/03/17 05:38:35;;;;;;;11.90;3.00;;;4.40;99.90;;;;;;5082547;28;20212;-76
2024/03/17 05:41:21;;;;;;;13.57;3.50;;;4.40;99.90;;;;;;5082273;28;20668;-75
2024/03/17 05:44:08;;;;;;;13.90;2.90;;;4.50;99.90;;;;;;5081721;28;20196;-76
2024/03/17 05:46:56;;;;;;;10.57;3.33;;;4.40;99.90;;;;;;5096448;28;20286;-76
2024/03/17 05:49:42;;;;;;;13.13;3.50;;;4.40;99.90;;;;;;5096305;28;20213;-76
2024/03/17 05:52:28;;;;;;;13.80;3.30;;;4.50;99.90;;;;;;5082455;28;20188;-76
2024/03/17 05:55:15;;;;;;;11.23;3.03;;;4.40;99.90;;;;;;5096499;28;20199;-76
2024/03/17 05:58:02;;;;;;;10.97;2.90;;;4.50;99.90;;;;;;5097283;28;20222;-75
2024/03/17 06:00:49;;;;;;;10.20;2.80;;;4.60;99.90;;;;;;5096872;28;20190;-76
2024/03/17 06:03:36;;;;;;;7.50;2.70;;;4.60;99.90;;;;;;5096051;28;20604;-75
2024/03/17 06:06:22;;;;;;;13.23;3.53;;;4.70;99.90;;;;;;5097504;28;20572;-75
2024/03/17 06:09:10;;;;;;;9.73;2.70;;;4.80;99.90;;;;;;5095373;28;20196;-75
2024/03/17 06:11:57;;;;;;;6.93;2.77;;;4.90;99.90;;;;;;5097109;28;20197;-76
2024/03/17 06:14:43;;;;;;;8.60;3.10;;;4.90;99.90;;;;;;5083712;28;20565;-76
2024/03/17 06:17:30;;;;;;;8.20;3.00;;;5.00;99.90;;;;;;5096050;28;20602;-76
2024/03/17 06:20:16;;;;;;;9.50;2.93;;;5.00;99.90;;;;;;5083085;28;20217;-76
2024/03/17 06:23:02;;;;;;;14.53;3.10;;;5.00;99.90;;;;;;5097971;28;20200;-75
2024/03/17 06:25:50;;;;;;;7.77;2.90;;;5.10;99.90;;;;;;5081911;28;20187;-76
2024/03/17 06:28:36;;;;;;;8.60;3.07;;;5.20;99.90;;;;;;5083471;28;20200;-76
2024/03/17 06:31:23;;;;;;;8.77;2.77;;;5.20;99.90;;;;;;5096362;28;20186;-76
2024/03/17 06:34:09;;;;;;;13.40;3.10;;;5.20;99.90;;;;;;5097509;28;20211;-76
2024/03/17 06:36:55;;;;;;;9.67;3.13;;;5.20;99.90;;;;;;5096823;28;20244;-75
2024/03/17 06:39:45;;;;;;;9.23;2.63;;;5.40;99.90;;;;;;5096252;28;20603;-75
2024/03/17 06:42:31;;;;;;;8.70;2.40;;;5.40;99.90;;;;;;5082240;28;20191;-76
2024/03/17 06:45:20;;;;;;;9.73;2.73;;;5.50;99.90;;;;;;5082358;28;20197;-76
2024/03/17 06:48:06;;;;;;;8.17;2.47;;;5.60;99.90;;;;;;5096562;28;20201;-76
2024/03/17 06:50:56;;;;;;;9.90;2.20;;;5.70;99.90;;;;;;5082078;28;20194;-76
2024/03/17 06:53:42;;;;;;;10.00;2.60;;;5.70;99.90;;;;;;5081730;28;20198;-76
2024/03/17 06:56:29;;;;;;;7.67;2.23;;;5.90;99.90;;;;;;5095993;28;20185;-76
2024/03/17 06:59:15;;;;;;;8.93;2.17;;;5.90;99.90;;;;;;5082277;28;20189;-76
2024/03/17 07:02:02;;;;;;;8.93;2.10;;;5.90;99.90;;;;;;5096896;28;20191;-76
2024/03/17 07:04:48;;;;;;;7.40;2.10;;;6.00;99.90;;;;;;5095436;28;20686;-75
2024/03/17 07:07:34;;;;;;;6.07;2.37;;;6.00;99.90;;;;;;5081612;28;20232;-76
2024/03/17 07:10:20;;;;;;;9.50;2.33;;;5.90;99.90;;;;;;5096218;28;20673;-75
2024/03/17 07:13:07;;;;;;;6.27;1.97;;;5.90;99.90;;;;;;5096546;28;20193;-75
2024/03/17 07:15:53;;;;;;;8.37;2.27;;;6.00;99.90;;;;;;5083008;28;20197;-75
2024/03/17 07:18:42;;;;;;;8.20;2.13;;;5.80;99.90;;;;;;5095866;28;20222;-75
2024/03/17 07:21:29;;;;;;;5.50;2.07;;;5.80;99.90;;;;;;5083345;28;20198;-75
2024/03/17 07:24:15;;;;;;;10.90;2.30;;;6.00;99.90;;;;;;5099070;28;20198;-75
2024/03/17 07:27:01;;;;;;;8.20;2.10;;;6.10;99.90;;;;;;5099872;28;20195;-75
2024/03/17 07:29:48;;;;;;;10.20;2.30;;;6.10;99.90;;;;;;5098950;28;20564;-75
2024/03/17 07:32:34;;;;;;;9.97;2.43;;;5.90;99.90;;;;;;5099553;28;20201;-75
2024/03/17 07:35:21;;;;;;;9.50;1.93;;;5.90;99.90;;;;;;5099839;28;20216;-75
2024/03/17 07:38:07;;;;;;;7.80;2.30;;;6.00;99.90;;;;;;5099020;28;20214;-76
2024/03/17 07:41:02;;;;;;;7.80;2.00;;;6.10;99.90;;;;;;5099839;28;20699;-75
2024/03/17 07:43:49;;;;;;;7.63;2.10;;;6.20;99.90;;;;;;5098894;28;20703;-75
2024/03/17 07:46:35;;;;;;;8.80;2.43;;;6.20;99.90;;;;;;5084729;28;20207;-75
2024/03/17 07:49:21;;;;;;;9.17;2.60;;;6.30;99.90;;;;;;5085663;28;20831;-75
2024/03/17 07:52:08;;;;;;;6.83;2.10;;;6.30;99.90;;;;;;5099592;28;20194;-75
2024/03/17 07:54:54;;;;;;;8.17;2.13;;;6.20;99.90;;;;;;5099734;28;20647;-75
2024/03/17 07:57:40;;;;;;;10.10;2.07;;;6.10;99.90;;;;;;5099649;28;20586;-75
2024/03/17 08:00:27;;;;;;;7.73;2.30;;;6.10;99.90;;;;;;5098784;28;20227;-76
2024/03/17 08:03:13;;;;;;;12.77;2.13;;;6.00;99.90;;;;;;5084910;28;20196;-75
2024/03/17 08:06:01;;;;;;;8.83;2.40;;;6.00;99.90;;;;;;5098404;28;20205;-75
2024/03/17 08:08:48;;;;;;;8.53;2.20;;;6.20;99.90;;;;;;5098504;28;20205;-75
2024/03/17 08:11:35;;;;;;;10.63;2.83;;;6.30;99.90;;;;;;5084129;28;20188;-75
2024/03/17 08:14:21;;;;;;;7.73;2.70;;;6.40;99.90;;;;;;5084304;28;20232;-75
2024/03/17 08:17:07;;;;;;;10.27;2.57;;;6.40;99.90;;;;;;5098734;28;20228;-75
2024/03/17 08:19:54;;;;;;;5.93;2.20;;;6.40;99.90;;;;;;5097250;28;20207;-76
2024/03/17 08:22:40;;;;;;;8.47;2.50;;;6.20;99.90;;;;;;5098550;28;20278;-75
2024/03/17 08:25:26;;;;;;;9.57;2.60;;;6.20;99.90;;;;;;5099186;28;20193;-75
2024/03/17 08:28:13;;;;;;;9.70;2.50;;;6.20;99.90;;;;;;5084394;28;20186;-75
2024/03/17 08:31:00;;;;;;;7.97;2.47;;;6.30;99.90;;;;;;5098932;28;20185;-75
2024/03/17 08:33:47;;;;;;;8.27;2.50;;;6.30;99.90;;;;;;5098559;28;20272;-75
2024/03/17 08:36:33;;;;;;;7.00;2.23;;;6.40;99.90;;;;;;5098681;28;20232;-76
2024/03/17 08:39:19;;;;;;;9.23;2.63;;;6.40;99.90;;;;;;5098208;28;20198;-75
2024/03/17 08:42:05;;;;;;;7.60;2.60;;;6.30;99.90;;;;;;5098790;28;20192;-76
2024/03/17 08:44:51;;;;;;;7.27;2.40;;;6.40;99.90;;;;;;5098622;28;20195;-75
2024/03/17 08:47:38;;;;;;;7.00;2.67;;;6.60;99.90;;;;;;5098697;28;20589;-75
2024/03/17 08:50:25;;;;;;;8.10;2.43;;;6.50;99.90;;;;;;5098465;28;20213;-75
2024/03/17 08:53:11;;;;;;;11.10;2.90;;;6.50;99.90;;;;;;5084492;28;20239;-76
2024/03/17 08:55:58;;;;;;;14.97;3.77;;;6.60;99.90;;;;;;5098800;28;20191;-76
2024/03/17 08:58:44;;;;;;;9.33;3.20;;;6.60;99.90;;;;;;5097159;28;20225;-76
2024/03/17 09:01:32;;;;;;;10.77;3.07;;;6.50;99.90;;;;;;5084294;28;20699;-75
2024/03/17 09:04:18;;;;;;;12.23;3.30;;;6.60;99.90;;;;;;5083638;28;20598;-74
2024/03/17 09:07:04;;;;;;;10.77;3.43;;;6.70;99.90;;;;;;5096910;28;20198;-74
2024/03/17 09:09:51;;;;;;;9.20;3.17;;;6.60;99.90;;;;;;5098000;28;20229;-74
2024/03/17 09:12:37;;;;;;;12.00;3.27;;;6.60;99.90;;;;;;5083535;28;20188;-75
2024/03/17 09:15:24;;;;;;;9.27;3.37;;;6.70;99.90;;;;;;5085206;28;20206;-74
2024/03/17 09:18:11;;;;;;;7.80;3.20;;;6.80;99.90;;;;;;5070358;28;20220;-74
2024/03/17 09:21:01;;;;;;;12.07;3.17;;;6.60;99.90;;;;;;5096889;28;20191;-74
2024/03/17 09:23:48;;;;;;;9.87;3.07;;;6.40;99.90;;;;;;5083258;28;20232;-74
2024/03/17 09:26:34;;;;;;;10.17;3.23;;;6.40;99.90;;;;;;5083856;28;20195;-75
2024/03/17 09:29:21;;;;;;;11.53;3.70;;;6.40;99.90;;;;;;5097804;28;20193;-75
2024/03/17 09:32:07;;;;;;;8.53;3.00;;;6.30;99.90;;;;;;5097858;28;20188;-75
2024/03/17 09:34:54;;;;;;;7.87;3.27;;;6.10;99.90;;;;;;5098882;28;20210;-75
2024/03/17 09:37:40;;;;;;;8.63;2.67;;;5.90;99.90;;;;;;5096508;28;20575;-76
2024/03/17 09:40:27;;;;;;;8.50;2.53;;;5.70;99.90;;;;;;5083576;28;20198;-75
2024/03/17 09:43:13;;;;;;;9.53;3.43;;;5.50;99.90;;;;;;5096802;28;20182;-75
2024/03/17 09:46:05;;;;;;;5.33;2.40;;;5.50;99.90;;;;;;5097631;28;20576;-75
2024/03/17 09:48:53;;;;;;;6.50;2.53;;;5.60;99.90;;;;;;5096206;28;20239;-75
2024/03/17 09:51:39;;;;;;;6.47;2.87;;;5.60;99.90;;;;;;5096464;28;20209;-76
2024/03/17 09:54:26;;;;;;;7.10;2.73;;;5.70;99.90;;;;;;5096952;28;20193;-75
2024/03/17 09:57:23;;;;;;;5.33;2.33;;;5.80;99.90;;;;;;5097377;28;20412;-75
2024/03/17 10:00:18;;;;;;;6.23;2.37;;;6.00;99.90;;;;;;5082649;28;20200;-75
2024/03/17 10:03:10;;;;;;;6.63;2.63;;;6.00;99.90;;;;;;5096899;28;20236;-76
2024/03/17 10:06:19;;;;;;;4.60;2.60;;;6.00;99.90;;;;;;5096703;28;20183;-76
2024/03/17 10:09:15;;;;;;;5.70;2.40;;;6.30;99.90;;;;;;5096052;28;20196;-75
2024/03/17 10:12:05;;;;;;;7.53;2.70;;;6.20;99.90;;;;;;5096760;28;20202;-76
2024/03/17 10:14:59;;;;;;;5.27;1.90;;;6.30;99.90;;;;;;5096543;28;20198;-76
2024/03/17 10:17:55;;;;;;;6.10;2.17;;;6.30;99.90;;;;;;5095781;28;20228;-76
2024/03/17 10:20:42;;;;;;;2.77;1.87;;;6.40;99.90;;;;;;5096616;28;20210;-75
2024/03/17 10:23:28;;;;;;;6.90;2.00;;;6.40;99.90;;;;;;5082002;28;20185;-75
2024/03/17 10:26:15;;;;;;;4.57;2.00;;;6.50;99.90;;;;;;5082612;28;20191;-75
2024/03/17 10:29:01;;;;;;;5.20;2.10;;;6.40;99.90;;;;;;5083571;28;20218;-75
2024/03/17 10:31:48;;;;;;;3.87;2.00;;;6.40;99.90;;;;;;5096022;28;20197;-75
2024/03/17 10:34:37;;;;;;;5.17;2.40;;;6.50;99.90;;;;;;5082411;28;20208;-75
2024/03/17 10:37:25;;;;;;;4.13;2.10;;;6.50;99.90;;;;;;5095714;28;20254;-75
2024/03/17 10:40:13;;;;;;;4.30;2.10;;;6.40;99.90;;;;;;5096414;28;20194;-75
2024/03/17 10:43:12;;;;;;;5.63;2.27;;;6.40;99.90;;;;;;5082613;28;20202;-75
2024/03/17 10:45:59;;;;;;;6.17;2.43;;;6.40;99.90;;;;;;5096369;28;20199;-75
2024/03/17 10:48:46;;;;;;;7.93;2.50;;;6.20;99.90;;;;;;5096759;28;20215;-76
2024/03/17 10:51:56;;;;;;;5.40;2.10;;;6.20;99.90;;;;;;5095415;28;20678;-75
2024/03/17 10:54:48;;;;;;;3.60;2.10;;;6.20;99.90;;;;;;5081866;28;20206;-76
2024/03/17 10:57:34;;;;;;;6.77;2.57;;;6.30;99.90;;;;;;5099676;28;20219;-75
2024/03/17 11:00:22;;;;;;;6.30;2.33;;;6.40;99.90;;;;;;5100318;28;20544;-76
2024/03/17 11:03:11;;;;;;;5.30;2.30;;;6.40;99.90;;;;;;5099842;28;20186;-75
2024/03/17 11:05:58;;;;;;;5.43;2.33;;;6.40;99.90;;;;;;5085601;28;20195;-75
2024/03/17 11:08:45;;;;;;;7.30;2.40;;;6.50;99.90;;;;;;5085863;28;20198;-75
2024/03/17 11:11:39;;;;;;;4.77;2.50;;;6.50;99.90;;;;;;5100376;28;20590;-76
2024/03/17 11:14:26;;;;;;;6.57;2.47;;;6.60;99.90;;;;;;5101659;28;20200;-76
2024/03/17 11:17:19;;;;;;;5.33;2.03;;;6.80;99.90;;;;;;5085092;28;20699;-75
2024/03/17 11:20:15;;;;;;;4.67;1.87;;;6.80;99.90;;;;;;5099763;28;20215;-75
2024/03/17 11:23:02;;;;;;;7.70;1.90;;;6.90;99.90;;;;;;5099252;28;20187;-75
2024/03/17 11:25:52;;;;;;;4.73;2.20;;;6.80;99.90;;;;;;5099202;28;20202;-76
2024/03/17 11:28:43;;;;;;;8.27;2.53;;;6.80;99.90;;;;;;5099642;28;20559;-75
2024/03/17 11:31:43;;;;;;;4.97;2.30;;;6.70;99.90;;;;;;5085646;28;20198;-75
2024/03/17 11:34:35;;;;;;;5.00;2.33;;;6.60;99.90;;;;;;5085568;28;20216;-75
2024/03/17 11:37:41;;;;;;;5.57;2.17;;;6.70;99.90;;;;;;5085252;28;20244;-76
2024/03/17 11:40:27;;;;;;;6.13;2.53;;;6.80;99.90;;;;;;5085401;28;20223;-76
2024/03/17 11:43:17;;;;;;;4.90;2.43;;;6.60;99.90;;;;;;5099471;28;20200;-75
2024/03/17 11:46:04;;;;;;;4.63;2.00;;;6.50;99.90;;;;;;5099340;28;20182;-76
2024/03/17 11:48:50;;;;;;;4.53;2.20;;;6.30;99.90;;;;;;5098583;28;20627;-76
2024/03/17 11:51:39;;;;;;;3.77;1.97;;;6.40;99.90;;;;;;5099191;28;20198;-75
2024/03/17 11:54:28;;;;;;;3.37;2.00;;;6.30;99.90;;;;;;5084341;28;20242;-76
2024/03/17 11:57:24;;;;;;;4.87;2.10;;;6.30;99.90;;;;;;5085022;28;20222;-75
2024/03/17 12:00:20;;;;;;;3.17;1.80;;;6.30;99.90;;;;;;5085580;28;20185;-76
2024/03/17 12:03:11;;;;;;;2.00;1.27;;;6.10;99.90;;;;;;5084978;28;20196;-75
2024/03/17 12:05:57;;;;;;;2.50;1.40;;;6.00;99.90;;;;;;5098906;28;20336;-75
2024/03/17 12:08:44;;;;;;;1.73;1.30;;;5.80;99.90;;;;;;5099404;28;20202;-75
2024/03/17 12:11:31;;;;;;;2.60;1.60;;;5.50;99.90;;;;;;5099298;28;20195;-75
2024/03/17 12:14:19;;;;;;;3.37;1.87;;;5.40;99.90;;;;;;5084279;28;20200;-76
2024/03/17 12:17:11;;;;;;;2.50;1.50;;;5.50;99.90;;;;;;5098343;28;20226;-76
2024/03/17 12:19:58;;;;;;;2.43;1.33;;;5.40;99.90;;;;;;5083646;28;20284;-76
2024/03/17 12:22:45;;;;;;;2.10;1.40;;;5.40;99.90;;;;;;5098244;28;20191;-76
2024/03/17 12:25:32;;;;;;;2.07;1.50;;;5.40;99.90;;;;;;5098525;28;20194;-76
2024/03/17 12:28:19;;;;;;;2.63;1.70;;;5.40;99.90;;;;;;5099094;28;20195;-76
2024/03/17 12:31:05;;;;;;;2.43;1.80;;;5.50;99.90;;;;;;5098537;28;20198;-75
2024/03/17 12:33:52;;;;;;;2.43;1.80;;;5.40;99.90;;;;;;5097950;28;20213;-76
2024/03/17 12:36:39;;;;;;;1.90;1.70;;;5.40;99.90;;;;;;5097938;28;20232;-76
2024/03/17 12:39:31;;;;;;;2.50;1.60;;;5.40;99.90;;;;;;5098630;28;20561;-75
2024/03/17 12:42:24;;;;;;;1.90;1.70;;;5.50;99.90;;;;;;5084810;28;20278;-76
2024/03/17 12:45:27;;;;;;;2.50;1.63;;;5.60;99.90;;;;;;5097440;28;20600;-76
2024/03/17 12:48:14;;;;;;;2.10;1.80;;;5.60;99.90;;;;;;5083235;28;20206;-76
2024/03/17 13:00:44;;;;;;;2.43;1.47;;;6.00;99.90;;;;;;5036064;28;20190;-76
2024/03/17 13:03:39;;;;;;;2.40;1.60;;;6.10;99.90;;;;;;5036462;28;20198;-75
2024/03/17 13:06:26;;;;;;;2.87;1.57;;;6.10;99.90;;;;;;5022520;28;20193;-76
2024/03/17 13:12:32;;;;;;;2.03;1.50;;;6.10;99.90;;;;;;5036244;28;20205;-75
2024/03/17 13:15:21;;;;;;;2.00;1.80;;;6.00;99.90;;;;;;5036832;28;20194;-75
2024/03/17 13:18:08;;;;;;;2.53;1.60;;;6.00;99.90;;;;;;5035496;28;20226;-75
2024/03/17 13:20:59;;;;;;;5.67;1.83;;;5.80;99.90;;;;;;5036142;28;20198;-75
2024/03/17 13:23:45;;;;;;;2.00;1.60;;;5.90;99.90;;;;;;5021888;28;20578;-76
2024/03/17 13:26:32;;;;;;;2.40;1.60;;;6.00;99.90;;;;;;5022994;28;20199;-75
2024/03/17 13:29:18;;;;;;;2.70;1.63;;;6.30;99.90;;;;;;5035564;28;20198;-75
2024/03/17 13:32:05;;;;;;;3.47;2.00;;;7.00;99.90;;;;;;5081206;28;20211;-75
2024/03/17 13:34:51;;;;;;;3.97;1.90;;;7.60;99.90;;;;;;5082927;28;20230;-75
2024/03/17 13:37:38;;;;;;;2.83;1.93;;;7.80;99.90;;;;;;5077202;28;20215;-75
2024/03/17 13:40:24;;;;;;;3.60;1.77;;;7.60;99.90;;;;;;5076426;28;20192;-75
2024/03/17 13:43:10;;;;;;;4.10;2.20;;;7.20;99.90;;;;;;5077328;28;20553;-75
2024/03/17 13:45:56;;;;;;;2.60;1.80;;;7.00;99.90;;;;;;5062729;28;20561;-75
2024/03/17 13:48:43;;;;;;;3.30;2.17;;;6.60;99.90;;;;;;5063127;28;20263;-75
2024/03/17 13:51:29;;;;;;;3.57;1.80;;;6.30;99.90;;;;;;5077385;28;20196;-75
2024/03/17 13:54:16;;;;;;;3.83;1.90;;;6.00;99.90;;;;;;5076992;28;20202;-75
2024/03/17 13:57:04;;;;;;;3.07;1.77;;;6.00;99.90;;;;;;5076350;28;20233;-75
2024/03/17 13:59:52;;;;;;;3.23;1.93;;;5.80;99.90;;;;;;5075434;28;20492;-76
2024/03/17 14:02:38;;;;;;;3.07;1.60;;;5.80;99.90;;;;;;5062911;28;20194;-75
2024/03/17 14:05:25;;;;;;;3.87;1.80;;;5.70;99.90;;;;;;5075692;28;20291;-75
2024/03/17 14:08:12;;;;;;;2.70;1.83;;;5.50;99.90;;;;;;5076418;28;20194;-75
2024/03/17 14:10:58;;;;;;;2.20;1.70;;;5.40;99.90;;;;;;5062799;28;20714;-75
2024/03/17 14:13:44;;;;;;;2.13;1.70;;;5.30;99.90;;;;;;5076191;28;20241;-75
2024/03/17 14:16:34;;;;;;;2.80;1.73;;;5.20;99.90;;;;;;5062699;28;20187;-75
2024/03/17 14:19:21;;;;;;;3.03;1.97;;;5.10;99.90;;;;;;5063182;28;20213;-76
2024/03/17 14:22:07;;;;;;;2.57;1.90;;;5.10;99.90;;;;;;5049619;28;20567;-75
2024/03/17 14:24:54;;;;;;;2.57;1.40;;;5.00;99.90;;;;;;5076547;28;20673;-76
2024/03/17 14:27:40;;;;;;;3.40;1.90;;;4.70;99.90;;;;;;5063402;28;20668;-75
2024/03/17 14:30:27;;;;;;;2.30;1.70;;;4.50;99.90;;;;;;5076566;28;20248;-75
2024/03/17 14:33:14;;;;;;;2.33;1.70;;;4.20;99.90;;;;;;5080704;28;20189;-75
2024/03/17 14:36:00;;;;;;;2.20;1.57;;;4.10;99.90;;;;;;5086941;28;20230;-76
2024/03/17 14:38:47;;;;;;;2.27;1.77;;;4.10;99.90;;;;;;5100902;28;20584;-75
2024/03/17 14:41:33;;;;;;;2.77;1.70;;;4.00;99.90;;;;;;5102602;27;20197;-75
2024/03/17 14:44:20;;;;;;;3.43;1.97;;;3.70;99.90;;;;;;5100106;28;20194;-75
2024/03/17 14:47:06;;;;;;;2.40;1.70;;;3.60;99.90;;;;;;5100754;28;20192;-75
2024/03/17 14:49:52;;;;;;;2.47;1.80;;;3.60;99.90;;;;;;5100647;28;20216;-75
2024/03/17 14:52:41;;;;;;;3.40;1.93;;;3.50;99.90;;;;;;5100692;28;20585;-75